Capehart, Indiana
Current Conditions -  °F | °C
As of 6:15 AM on Monday 26 Jan 2015 (Local Time) from KDCY Reporting Station
Overcast Overcast  
Wind Chill: 22°   Ceiling: 1600
Heat Index: 28°   Visibility: 10mi
Dew Point: 21°   Wind: 6mph
Humidity: 77%   Direction: 350°N
Pressure: 29.96"   Gusts: NA
Location:  38.6427°N, 87.1768°W
Report Text: KDCY 261215Z AUTO 35005KT 10SM OVC016 M02/M06 A2996 RMK AO2 T10231059
Loading
Personal Weather Stations






























Interactive Weather Map New forecast layout! Learn more

10-Day Weather Forecast

Advertisements
Track Severe Weather on mobile